Terminal Aerodrome Forecast
Issued by NWS La Crosse, WI

Home | Current Version | Previous Version | Text Only | Print | Product List | Glossary On
Versions: 1 2 3 4 5 6 7 8 9 10 11 12 13 14 15 16 17 18 19 20 21 22 23 24 25 26 27 28 29 30 31 32 33 34 35 36 37 38 39 40 41 42 43 44 45 46 47 48 49 50
440
FTUS43 KARX 232127 AAC
TAFLSE
TAF AMD
KLSE 232127Z 2321/2418 15011KT 5SM RA BR FEW008 BKN080
     FM232300 14008G18KT P6SM BKN120
     FM240600 17010KT P6SM VCTS BKN050CB
     FM240900 20010KT P6SM BKN100
     FM241500 28010KT P6SM BKN250=

USA.gov is the U.S. government's official web portal to all federal, state and local government web resources and services.